This is the latest recevied weather packets stored in our database for station/object DG0PX-12. If no packets are shown the sender has not sent any weather packets the latest 10 day(s).
| Time | Temp. | Humidity | Pressure | Rain* | Wind** | Luminosity | Snow |
|---|---|---|---|---|---|---|---|
| 1787929183 | 26.11° C | 64% | 949.4 hPa | - | - | - | - |
| 1787928283 | 28.33° C | 60% | 949 hPa | - | - | - | - |
| 1787927383 | 29.44° C | 55% | 948.8 hPa | - | - | - | - |
| 1787926483 | 31.67° C | 51% | 948 hPa | - | - | - | - |
| 1787925583 | 30° C | 55% | 947.7 hPa | - | - | - | - |
| 1787924683 | 30° C | 55% | 947.4 hPa | - | - | - | - |
| 1787923783 | 32.22° C | 49% | 947.2 hPa | - | - | - | - |
| 1787922883 | 30.56° C | 56% | 947.2 hPa | - | - | - | - |
| 1787921983 | 32.22° C | 55% | 947.2 hPa | - | - | - | - |
| 1787921083 | 33.89° C | 55% | 947.1 hPa | - | - | - | - |
| 1787920183 | 30.56° C | 60% | 946.5 hPa | - | - | - | - |
| 1787919283 | 33.89° C | 36% | 945.1 hPa | - | - | - | - |
| 1787918383 | 42.22° C | 18% | 944.7 hPa | - | - | - | - |
| 1787917483 | 41.11° C | 20% | 944.7 hPa | - | - | - | - |
| 1787916582 | 40.56° C | 25% | 944.4 hPa | - | - | - | - |
| 1787915682 | 39.44° C | 27% | 944.4 hPa | - | - | - | - |
| 1787914782 | 40° C | 28% | 944.3 hPa | - | - | - | - |
| 1787913882 | 38.89° C | 31% | 943.9 hPa | - | - | - | - |
| 1787912982 | 43.33° C | 25% | 944.2 hPa | - | - | - | - |
| 1787912082 | 37.78° C | 33% | 943.8 hPa | - | - | - | - |
| 1787911182 | 37.78° C | 32% | 943.8 hPa | - | - | - | - |
| 1787910282 | 35.56° C | 37% | 943.7 hPa | - | - | - | - |
| 1787909382 | 33.89° C | 40% | 943.1 hPa | - | - | - | - |
| 1787908482 | 34.44° C | 37% | 943.5 hPa | - | - | - | - |
| 1787907582 | 33.89° C | 41% | 943.8 hPa | - | - | - | - |
* Rain since midnight (hover to see other rain measurements)
** Current wind speed in m/s (hover to see current wind gust speed)